createdAt,value
2023-07-22T00:01:41.605Z,99921.44
2023-07-22T00:04:08.021Z,99926.09
2023-07-22T00:06:34.381Z,99922.84
2023-07-22T00:09:00.691Z,99918.34
2023-07-22T00:11:27.035Z,99931.94
2023-07-22T00:13:53.343Z,99935.66
2023-07-22T00:16:19.790Z,99935.09
2023-07-22T00:18:46.080Z,99932.50
2023-07-22T00:21:12.446Z,99939.84
2023-07-22T00:23:38.904Z,99945.41
2023-07-22T00:26:05.263Z,99949.91
2023-07-22T00:28:31.535Z,99953.53
2023-07-22T00:30:58.420Z,99950.00
2023-07-22T00:33:25.002Z,99948.28
2023-07-22T00:35:51.751Z,99944.84
2023-07-22T00:38:18.276Z,99941.19
2023-07-22T00:40:44.869Z,99941.19
2023-07-22T00:43:11.947Z,99939.28
2023-07-22T00:45:38.309Z,99934.97
2023-07-22T00:48:06.086Z,99937.34
2023-07-22T00:50:34.291Z,99931.31
2023-07-22T00:53:00.733Z,99938.41
2023-07-22T00:55:27.768Z,99936.94
2023-07-22T00:57:55.749Z,99938.94
2023-07-22T01:00:22.469Z,99941.63
2023-07-22T01:02:48.872Z,99937.22
2023-07-22T01:05:15.243Z,99935.69
2023-07-22T01:07:42.900Z,99929.47
2023-07-22T01:10:09.748Z,99938.56
2023-07-22T01:12:36.603Z,99927.22
2023-07-22T01:15:08.435Z,99923.97
2023-07-22T01:17:37.331Z,99918.75
2023-07-22T01:20:04.629Z,99927.09
2023-07-22T01:22:32.117Z,99914.31
2023-07-22T01:24:59.286Z,99927.28
2023-07-22T01:27:25.680Z,99937.03
2023-07-22T01:29:52.858Z,99928.22
2023-07-22T01:32:21.116Z,99929.06
2023-07-22T01:34:47.470Z,99936.88
2023-07-22T01:37:13.775Z,99931.38
2023-07-22T01:39:40.098Z,99928.03
2023-07-22T01:42:06.509Z,99934.63
2023-07-22T01:44:32.796Z,99931.25
2023-07-22T01:47:03.397Z,99932.47
2023-07-22T01:49:30.101Z,99940.59
2023-07-22T01:51:56.938Z,99936.25
2023-07-22T01:54:23.352Z,99932.88
2023-07-22T01:56:49.713Z,99931.31
2023-07-22T01:59:16.023Z,99932.38
2023-07-22T02:01:42.360Z,99923.91
2023-07-22T02:04:08.980Z,99931.06
2023-07-22T02:06:35.807Z,99932.00
2023-07-22T02:09:09.117Z,99925.88
2023-07-22T02:11:38.530Z,99918.03
2023-07-22T02:14:07.775Z,99908.59
2023-07-22T02:16:38.488Z,99925.28
2023-07-22T02:19:05.257Z,99927.25
2023-07-22T02:21:31.702Z,99930.13
2023-07-22T02:23:58.018Z,99925.88
2023-07-22T02:26:25.448Z,99927.16
2023-07-22T02:28:52.049Z,99923.97
2023-07-22T02:31:18.433Z,99924.47
2023-07-22T02:33:44.889Z,99924.56
2023-07-22T02:36:11.276Z,99921.19
2023-07-22T02:38:37.625Z,99924.03
2023-07-22T02:41:08.698Z,99923.59
2023-07-22T02:43:36.120Z,99929.88
2023-07-22T02:46:04.251Z,99927.63
2023-07-22T02:48:32.369Z,99928.03
2023-07-22T02:51:08.957Z,99932.66
2023-07-22T02:53:37.640Z,99932.00
2023-07-22T02:56:05.538Z,99922.41
2023-07-22T02:58:31.897Z,99933.25
2023-07-22T03:00:58.986Z,99933.34
2023-07-22T03:03:25.359Z,99941.38
2023-07-22T03:05:52.997Z,99944.13
2023-07-22T03:08:19.545Z,99932.75
2023-07-22T03:10:49.709Z,99943.53
2023-07-22T03:13:17.388Z,99937.47
2023-07-22T03:15:44.082Z,99939.38
2023-07-22T03:18:11.085Z,99925.53
2023-07-22T03:20:38.660Z,99937.00
2023-07-22T03:23:05.869Z,99942.66
2023-07-22T03:25:33.520Z,99948.19
2023-07-22T03:28:04.426Z,99952.88
2023-07-22T03:30:31.158Z,99947.84
2023-07-22T03:32:58.281Z,99945.66
2023-07-22T03:35:24.695Z,99946.69
2023-07-22T03:37:51.048Z,99939.66
2023-07-22T03:40:43.494Z,99949.19
2023-07-22T03:43:09.917Z,99949.13
2023-07-22T03:45:36.305Z,99947.22
2023-07-22T03:48:02.789Z,99946.28
2023-07-22T03:50:29.442Z,99949.91
2023-07-22T03:52:55.993Z,99957.13
2023-07-22T03:55:22.317Z,99955.50
2023-07-22T03:57:48.753Z,99953.75
2023-07-22T04:00:15.368Z,99944.16
2023-07-22T04:02:42.713Z,99954.28
2023-07-22T04:05:09.671Z,99959.78
2023-07-22T04:07:36.269Z,99945.47
2023-07-22T04:10:03.682Z,99953.25
2023-07-22T04:12:30.300Z,99947.91
2023-07-22T04:14:56.643Z,99945.34
2023-07-22T04:17:23.073Z,99956.03
2023-07-22T04:19:49.379Z,99948.00
2023-07-22T04:22:15.741Z,99955.06
2023-07-22T04:24:42.238Z,99951.53
2023-07-22T04:27:08.770Z,99955.78
2023-07-22T04:29:36.320Z,99950.50
2023-07-22T04:32:03.378Z,99946.19
2023-07-22T04:34:33.814Z,99953.97
2023-07-22T04:37:00.280Z,99949.59
2023-07-22T04:39:26.635Z,99953.97
2023-07-22T04:41:53.156Z,99952.94
2023-07-22T04:44:20.087Z,99952.72
2023-07-22T04:46:46.950Z,99957.13
2023-07-22T04:49:18.521Z,99951.94
2023-07-22T04:51:47.908Z,99959.09
2023-07-22T04:54:15.668Z,99957.91
2023-07-22T04:56:42.861Z,99964.84
2023-07-22T04:59:09.842Z,99960.22
2023-07-22T05:01:36.482Z,99953.91
2023-07-22T05:04:02.874Z,99956.41
2023-07-22T05:06:29.891Z,99965.09
2023-07-22T05:08:56.520Z,99965.81
2023-07-22T05:11:24.282Z,99965.56
2023-07-22T05:13:51.799Z,99969.72
2023-07-22T05:16:18.457Z,99970.34
2023-07-22T05:18:44.786Z,99968.31
2023-07-22T05:21:11.121Z,99971.63
2023-07-22T05:23:37.473Z,99973.22
2023-07-22T05:26:03.869Z,99967.63
2023-07-22T05:28:30.262Z,99970.75
2023-07-22T05:30:57.350Z,99968.53
2023-07-22T05:33:23.812Z,99969.78
2023-07-22T05:35:50.241Z,99963.16
2023-07-22T05:38:16.577Z,99964.44
2023-07-22T05:40:42.897Z,99962.03
2023-07-22T05:43:09.478Z,99964.03
2023-07-22T05:45:35.825Z,99966.06
2023-07-22T05:48:02.197Z,99963.38
2023-07-22T05:50:28.533Z,99959.78
2023-07-22T05:52:54.937Z,99966.84
2023-07-22T05:55:21.601Z,99969.47
2023-07-22T05:57:48.024Z,99963.41
2023-07-22T06:00:14.595Z,99966.22
2023-07-22T06:02:41.126Z,99961.19
2023-07-22T06:05:07.925Z,99961.47
2023-07-22T06:07:34.497Z,99961.78
2023-07-22T06:10:00.815Z,99957.66
2023-07-22T06:14:58.820Z,99964.81
2023-07-22T06:17:25.427Z,99957.25
2023-07-22T06:19:51.808Z,99968.09
2023-07-22T06:22:18.065Z,99970.75
2023-07-22T06:24:44.469Z,99974.69
2023-07-22T06:27:10.979Z,99973.41
2023-07-22T06:29:37.340Z,99975.81
2023-07-22T06:32:04.219Z,99984.91
2023-07-22T06:34:30.640Z,99987.88
2023-07-22T06:36:56.915Z,99979.44
2023-07-22T06:39:23.325Z,99978.75
2023-07-22T06:41:49.655Z,99968.88
2023-07-22T06:44:16.111Z,99980.44
2023-07-22T06:46:42.635Z,99981.88
2023-07-22T06:49:09.671Z,99983.16
2023-07-22T06:51:36.103Z,99987.16
2023-07-22T06:54:04.116Z,99981.84
2023-07-22T06:56:30.704Z,99986.59
2023-07-22T06:58:57.902Z,99978.41
2023-07-22T07:01:24.402Z,99987.47
2023-07-22T07:03:51.333Z,99978.31
2023-07-22T07:06:17.719Z,99987.63
2023-07-22T07:08:44.040Z,99986.97
2023-07-22T07:11:10.318Z,99984.31
2023-07-22T07:13:36.634Z,99982.28
2023-07-22T07:16:21.506Z,99980.34
2023-07-22T07:18:47.890Z,99989.81
2023-07-22T07:21:14.153Z,99980.34
2023-07-22T07:23:40.459Z,99983.88
2023-07-22T07:26:06.763Z,99985.69
2023-07-22T07:28:33.096Z,99988.81
2023-07-22T07:30:59.403Z,99984.94
2023-07-22T07:33:25.712Z,99987.94
2023-07-22T07:35:52.032Z,99985.19
2023-07-22T07:38:18.603Z,99980.31
2023-07-22T07:40:44.937Z,99978.50
2023-07-22T07:43:11.288Z,99982.84
2023-07-22T07:45:40.776Z,99984.88
2023-07-22T07:48:07.176Z,99978.63
2023-07-22T07:50:33.844Z,99991.94
2023-07-22T07:53:00.519Z,99985.81
2023-07-22T07:55:26.893Z,99990.41
2023-07-22T07:57:53.275Z,99987.56
2023-07-22T08:00:21.281Z,99984.84
2023-07-22T08:02:48.097Z,99982.06
2023-07-22T08:05:14.617Z,99985.34
2023-07-22T08:07:41.010Z,99976.09
2023-07-22T08:10:08.468Z,99984.81
2023-07-22T08:12:34.863Z,99974.75
2023-07-22T08:15:01.185Z,99975.94
2023-07-22T08:17:27.509Z,99974.19
2023-07-22T08:19:54.425Z,99976.91
2023-07-22T08:22:20.812Z,99981.63
2023-07-22T08:24:49.725Z,99978.94
2023-07-22T08:27:16.461Z,99970.63
2023-07-22T08:29:42.789Z,99969.19
2023-07-22T08:32:09.157Z,99968.19
2023-07-22T08:34:35.502Z,99966.38
2023-07-22T08:37:01.853Z,99968.91
2023-07-22T08:39:28.176Z,99952.25
2023-07-22T08:41:57.152Z,99955.47
2023-07-22T08:44:26.249Z,99955.72
2023-07-22T08:46:58.395Z,99966.94
2023-07-22T08:49:25.445Z,99960.34
2023-07-22T08:51:52.118Z,99952.41
2023-07-22T08:54:18.557Z,99960.59
2023-07-22T08:56:45.296Z,99955.88
2023-07-22T08:59:12.284Z,99949.53
2023-07-22T09:01:40.360Z,99950.25
2023-07-22T09:04:06.870Z,99950.13
2023-07-22T09:06:34.372Z,99952.44
2023-07-22T09:09:01.698Z,99958.28
2023-07-22T09:11:28.227Z,99945.97
2023-07-22T09:13:55.246Z,99943.47
2023-07-22T09:16:22.836Z,99947.41
2023-07-22T09:18:49.361Z,99963.72
2023-07-22T09:21:15.792Z,99955.00
2023-07-22T09:23:42.276Z,99957.59
2023-07-22T09:26:11.446Z,99944.13
2023-07-22T09:28:58.073Z,99949.53
2023-07-22T09:31:27.400Z,99941.19
2023-07-22T09:33:57.191Z,99947.09
2023-07-22T09:36:23.724Z,99941.00
2023-07-22T09:39:04.367Z,99939.09
2023-07-22T09:41:31.835Z,99941.22
2023-07-22T09:43:58.323Z,99942.31
2023-07-22T09:46:32.879Z,99940.19
2023-07-22T09:49:04.206Z,99942.75
2023-07-22T09:51:36.288Z,99929.69
2023-07-22T09:54:05.666Z,99929.72
2023-07-22T09:56:32.694Z,99939.59
2023-07-22T09:59:06.784Z,99938.03
2023-07-22T10:01:33.193Z,99945.72
2023-07-22T10:04:00.167Z,99943.72
2023-07-22T10:06:29.217Z,99946.41
2023-07-22T10:08:57.779Z,99939.75
2023-07-22T10:11:28.799Z,99944.31
2023-07-22T10:13:56.830Z,99945.47
2023-07-22T10:16:25.292Z,99934.06
2023-07-22T10:18:52.650Z,99925.31
2023-07-22T10:21:19.796Z,99933.38
2023-07-22T10:23:49.083Z,99934.50
2023-07-22T10:26:26.156Z,99937.94
2023-07-22T10:28:59.525Z,99934.00
2023-07-22T10:31:25.995Z,99934.97
2023-07-22T10:33:52.860Z,99933.50
2023-07-22T10:36:19.396Z,99942.00
2023-07-22T10:38:57.223Z,99933.81
2023-07-22T10:41:23.779Z,99928.25
2023-07-22T10:43:58.534Z,99930.16
2023-07-22T10:46:44.565Z,99910.06
2023-07-22T10:49:13.384Z,99914.97
2023-07-22T10:51:40.068Z,99918.31
2023-07-22T10:54:13.330Z,99919.88
2023-07-22T10:56:42.292Z,99914.75
2023-07-22T10:59:11.387Z,99916.47
2023-07-22T11:01:39.702Z,99911.53
2023-07-22T11:04:18.027Z,99901.56
2023-07-22T11:06:50.478Z,99908.00
2023-07-22T11:09:29.102Z,99890.53
2023-07-22T11:12:09.707Z,99887.22
2023-07-22T11:14:40.286Z,99885.72
2023-07-22T11:17:09.345Z,99878.13
2023-07-22T11:19:36.368Z,99877.81
2023-07-22T11:22:03.053Z,99877.78
2023-07-22T11:24:29.649Z,99872.13
2023-07-22T11:26:56.881Z,99888.44
2023-07-22T11:29:23.515Z,99883.03
2023-07-22T11:31:51.379Z,99873.16
2023-07-22T11:34:20.119Z,99872.88
2023-07-22T11:36:47.764Z,99865.72
2023-07-22T11:39:16.967Z,99863.63
2023-07-22T11:41:45.100Z,99864.28
2023-07-22T11:44:16.596Z,99869.88
2023-07-22T11:47:01.318Z,99863.88
2023-07-22T11:49:34.698Z,99852.59
2023-07-22T11:52:04.451Z,99857.00
2023-07-22T11:54:32.830Z,99845.88
2023-07-22T11:57:16.996Z,99844.13
2023-07-22T11:59:49.087Z,99848.13
2023-07-22T12:02:26.745Z,99838.84
2023-07-22T12:05:01.959Z,99841.13
2023-07-22T12:07:39.210Z,99833.28
2023-07-22T12:10:11.143Z,99821.75
2023-07-22T12:12:46.897Z,99812.53
2023-07-22T12:15:18.473Z,99826.91
2023-07-22T12:17:49.595Z,99827.13
2023-07-22T12:20:18.051Z,99810.19
2023-07-22T12:22:44.593Z,99811.09
2023-07-22T12:25:11.318Z,99813.25
2023-07-22T12:27:38.761Z,99815.13
2023-07-22T12:30:06.854Z,99808.69
2023-07-22T12:32:33.491Z,99808.63
2023-07-22T12:34:59.931Z,99808.25
2023-07-22T12:37:26.829Z,99791.41
2023-07-22T12:39:53.163Z,99797.06
2023-07-22T12:42:19.574Z,99804.00
2023-07-22T12:44:46.684Z,99810.69
2023-07-22T12:47:13.382Z,99801.13
2023-07-22T12:49:39.880Z,99798.97
2023-07-22T12:52:09.921Z,99793.13
2023-07-22T12:54:36.869Z,99789.81
2023-07-22T12:57:03.317Z,99800.53
2023-07-22T12:59:29.690Z,99796.47
2023-07-22T13:01:56.238Z,99786.31
2023-07-22T13:04:22.593Z,99777.34
2023-07-22T13:06:48.917Z,99782.19
2023-07-22T13:09:15.251Z,99783.75
2023-07-22T13:11:41.627Z,99781.03
2023-07-22T13:14:08.068Z,99776.88
2023-07-22T13:16:34.435Z,99772.91
2023-07-22T13:19:01.847Z,99763.75
2023-07-22T13:21:29.013Z,99768.91
2023-07-22T13:23:55.578Z,99765.25
2023-07-22T13:26:22.239Z,99765.13
2023-07-22T13:28:48.578Z,99770.69
2023-07-22T13:31:14.937Z,99762.91
2023-07-22T13:33:41.314Z,99767.31
2023-07-22T13:36:07.909Z,99765.63
2023-07-22T13:38:34.214Z,99763.22
2023-07-22T13:41:00.580Z,99760.88
2023-07-22T13:43:28.354Z,99768.97
2023-07-22T13:45:54.883Z,99761.47
2023-07-22T13:48:21.203Z,99750.75
2023-07-22T13:50:47.652Z,99763.41
2023-07-22T13:53:13.950Z,99758.28
2023-07-22T13:55:40.284Z,99768.59
2023-07-22T13:58:06.606Z,99756.63
2023-07-22T14:00:32.973Z,99758.84
2023-07-22T14:03:00.027Z,99750.81
2023-07-22T14:05:26.579Z,99745.78
2023-07-22T14:07:53.798Z,99742.84
2023-07-22T14:10:20.178Z,99745.00
2023-07-22T14:12:46.526Z,99751.75
2023-07-22T14:15:12.971Z,99747.28
2023-07-22T14:17:39.965Z,99739.59
2023-07-22T14:20:08.029Z,99738.81
2023-07-22T14:22:34.441Z,99737.88
2023-07-22T14:25:00.856Z,99742.41
2023-07-22T14:27:27.192Z,99740.34
2023-07-22T14:29:53.520Z,99737.44
2023-07-22T14:32:19.867Z,99727.94
2023-07-22T14:34:46.219Z,99725.41
2023-07-22T14:37:12.592Z,99730.31
2023-07-22T14:39:38.981Z,99729.97
2023-07-22T14:42:05.449Z,99732.47
2023-07-22T14:44:31.764Z,99728.91
2023-07-22T14:46:58.172Z,99732.03
2023-07-22T14:49:24.504Z,99733.13
2023-07-22T14:51:50.902Z,99723.63
2023-07-22T14:54:17.239Z,99723.56
2023-07-22T14:56:43.605Z,99723.50
2023-07-22T14:59:09.997Z,99716.53
2023-07-22T15:01:40.278Z,99714.88
2023-07-22T15:04:07.001Z,99715.03
2023-07-22T15:06:33.761Z,99717.16
2023-07-22T15:09:01.925Z,99706.03
2023-07-22T15:11:28.603Z,99706.09
2023-07-22T15:13:55.181Z,99710.00
2023-07-22T15:16:21.590Z,99708.28
2023-07-22T15:18:47.912Z,99700.03
2023-07-22T15:21:14.224Z,99707.28
2023-07-22T15:23:40.593Z,99703.81
2023-07-22T15:26:06.932Z,99706.03
2023-07-22T15:28:33.254Z,99706.03
2023-07-22T15:30:59.742Z,99702.97
2023-07-22T15:33:26.474Z,99706.72
2023-07-22T15:35:53.265Z,99701.13
2023-07-22T15:38:19.599Z,99698.94
2023-07-22T15:40:45.996Z,99696.91
2023-07-22T15:43:12.337Z,99695.22
2023-07-22T15:45:38.680Z,99693.19
2023-07-22T15:48:06.737Z,99693.34
2023-07-22T15:50:33.402Z,99696.44
2023-07-22T15:52:59.773Z,99698.69
2023-07-22T15:55:26.191Z,99687.56
2023-07-22T15:57:52.576Z,99687.28
2023-07-22T16:00:18.927Z,99702.09
2023-07-22T16:02:45.381Z,99692.50
2023-07-22T16:05:22.884Z,99695.00
2023-07-22T16:07:49.802Z,99681.69
2023-07-22T16:10:16.268Z,99672.81
2023-07-22T16:12:42.937Z,99675.09
2023-07-22T16:15:09.854Z,99688.47
2023-07-22T16:17:36.416Z,99684.81
2023-07-22T16:20:03.482Z,99678.00
2023-07-22T16:22:30.524Z,99680.69
2023-07-22T16:24:58.632Z,99674.84
2023-07-22T16:27:24.938Z,99666.63
2023-07-22T16:29:52.487Z,99674.41
2023-07-22T16:32:18.900Z,99662.47
2023-07-22T16:34:45.321Z,99655.09
2023-07-22T16:37:11.640Z,99659.00
2023-07-22T16:39:38.782Z,99661.38
2023-07-22T16:42:05.603Z,99667.84
2023-07-22T16:44:31.945Z,99675.03
2023-07-22T16:46:58.286Z,99682.91
2023-07-22T16:49:28.017Z,99674.75
2023-07-22T16:51:54.369Z,99668.41
2023-07-22T16:54:20.728Z,99666.19
2023-07-22T16:56:47.060Z,99675.59
2023-07-22T16:59:13.390Z,99670.03
2023-07-22T17:01:39.778Z,99665.66
2023-07-22T17:04:08.723Z,99670.50
2023-07-22T17:06:35.310Z,99670.28
2023-07-22T17:09:01.841Z,99662.59
2023-07-22T17:11:28.601Z,99660.66
2023-07-22T17:13:55.157Z,99672.50
2023-07-22T17:16:21.873Z,99661.06
2023-07-22T17:18:48.244Z,99658.28
2023-07-22T17:21:14.694Z,99663.38
2023-07-22T17:23:41.250Z,99663.84
2023-07-22T17:26:07.717Z,99657.84
2023-07-22T17:28:34.034Z,99651.44
2023-07-22T17:31:01.162Z,99650.03
2023-07-22T17:33:28.156Z,99650.06
2023-07-22T17:35:54.544Z,99650.25
2023-07-22T17:38:21.127Z,99643.50
2023-07-22T17:40:48.195Z,99645.69
2023-07-22T17:43:14.690Z,99648.84
2023-07-22T17:45:41.169Z,99638.13
2023-07-22T17:48:07.589Z,99640.84
2023-07-22T17:50:34.020Z,99637.13
2023-07-22T17:53:00.381Z,99638.84
2023-07-22T17:55:27.369Z,99638.44
2023-07-22T17:57:53.726Z,99638.13
2023-07-22T18:00:20.132Z,99639.16
2023-07-22T18:02:46.512Z,99642.84
2023-07-22T18:05:13.009Z,99639.28
2023-07-22T18:07:39.446Z,99637.31
2023-07-22T18:10:06.200Z,99637.63
2023-07-22T18:12:32.620Z,99639.09
2023-07-22T18:14:58.947Z,99634.94
2023-07-22T18:17:25.381Z,99637.28
2023-07-22T18:19:51.753Z,99640.13
2023-07-22T18:22:18.155Z,99641.44
2023-07-22T18:24:44.611Z,99644.75
2023-07-22T18:27:10.971Z,99639.06
2023-07-22T18:29:37.305Z,99650.94
2023-07-22T18:32:04.009Z,99643.22
2023-07-22T18:34:30.368Z,99645.84
2023-07-22T18:36:56.760Z,99645.13
2023-07-22T18:39:24.073Z,99651.50
2023-07-22T18:41:50.535Z,99643.81
2023-07-22T18:44:16.881Z,99653.94
2023-07-22T18:46:43.334Z,99650.25
2023-07-22T18:49:09.792Z,99653.41
2023-07-22T18:51:36.130Z,99651.56
2023-07-22T18:54:02.560Z,99654.28
2023-07-22T18:56:28.987Z,99653.84
2023-07-22T18:58:58.266Z,99653.13
2023-07-22T19:01:24.678Z,99649.44
2023-07-22T19:03:51.220Z,99642.31
2023-07-22T19:06:17.591Z,99643.16
2023-07-22T19:08:43.948Z,99636.47
2023-07-22T19:11:12.916Z,99655.97
2023-07-22T19:13:39.735Z,99655.13
2023-07-22T19:16:06.405Z,99647.81
2023-07-22T19:18:32.774Z,99657.09
2023-07-22T19:21:01.376Z,99658.66
2023-07-22T19:23:28.885Z,99666.75
2023-07-22T19:25:57.035Z,99662.31
2023-07-22T19:28:23.476Z,99662.72
2023-07-22T19:30:57.617Z,99673.25
2023-07-22T19:33:25.151Z,99677.34
2023-07-22T19:36:06.328Z,99680.59
2023-07-22T19:38:34.177Z,99677.69
2023-07-22T19:41:18.619Z,99682.78
2023-07-22T19:43:45.609Z,99674.34
2023-07-22T19:46:15.087Z,99676.59
2023-07-22T19:48:42.949Z,99677.00
2023-07-22T19:51:11.540Z,99673.72
2023-07-22T19:53:38.044Z,99676.69
2023-07-22T19:56:09.080Z,99675.00
2023-07-22T19:58:36.580Z,99682.09
2023-07-22T20:01:04.592Z,99686.06
2023-07-22T20:03:32.265Z,99679.66
2023-07-22T20:05:58.896Z,99679.19
2023-07-22T20:08:25.254Z,99678.59
2023-07-22T20:10:52.200Z,99684.56
2023-07-22T20:13:18.699Z,99689.09
2023-07-22T20:15:45.156Z,99691.06
2023-07-22T20:18:11.599Z,99683.34
2023-07-22T20:20:37.961Z,99689.78
2023-07-22T20:23:04.376Z,99686.59
2023-07-22T20:25:30.746Z,99687.00
2023-07-22T20:27:58.217Z,99685.94
2023-07-22T20:30:27.032Z,99693.19
2023-07-22T20:32:54.166Z,99704.00
2023-07-22T20:35:20.977Z,99696.97
2023-07-22T20:37:47.370Z,99699.81
2023-07-22T20:40:14.581Z,99697.72
2023-07-22T20:42:42.462Z,99694.91
2023-07-22T20:45:09.484Z,99697.13
2023-07-22T20:47:35.896Z,99698.94
2023-07-22T20:50:02.384Z,99698.47
2023-07-22T20:52:28.747Z,99691.63
2023-07-22T20:54:55.129Z,99697.88
2023-07-22T20:57:21.587Z,99694.44
2023-07-22T20:59:49.757Z,99694.59
2023-07-22T21:02:16.635Z,99693.88
2023-07-22T21:04:43.995Z,99695.97
2023-07-22T21:07:11.354Z,99682.97
2023-07-22T21:09:38.344Z,99695.34
2023-07-22T21:12:05.074Z,99690.22
2023-07-22T21:14:31.449Z,99680.38
2023-07-22T21:16:57.771Z,99687.25
2023-07-22T21:19:24.099Z,99675.13
2023-07-22T21:21:50.451Z,99684.41
2023-07-22T21:24:17.069Z,99675.59
2023-07-22T21:26:43.508Z,99673.88
2023-07-22T21:29:09.872Z,99674.72
2023-07-22T21:31:36.290Z,99677.69
2023-07-22T21:34:14.270Z,99674.97
2023-07-22T21:36:41.612Z,99683.69
2023-07-22T21:39:08.106Z,99680.38
2023-07-22T21:41:34.457Z,99676.22
2023-07-22T21:44:00.784Z,99678.34
2023-07-22T21:46:27.165Z,99684.84
2023-07-22T21:48:53.591Z,99686.09
2023-07-22T21:51:19.949Z,99688.06
2023-07-22T21:53:46.311Z,99673.34
2023-07-22T21:56:12.641Z,99679.03
2023-07-22T21:58:39.138Z,99680.84
2023-07-22T22:01:05.827Z,99686.78
2023-07-22T22:03:32.280Z,99687.13
2023-07-22T22:05:59.479Z,99681.25
2023-07-22T22:08:26.487Z,99682.38
2023-07-22T22:10:52.920Z,99683.34
2023-07-22T22:13:19.384Z,99681.75
2023-07-22T22:15:45.746Z,99680.91
2023-07-22T22:18:12.312Z,99681.50
2023-07-22T22:20:38.735Z,99683.84
2023-07-22T22:23:05.077Z,99677.09
2023-07-22T22:25:31.440Z,99680.53
2023-07-22T22:27:57.814Z,99681.28
2023-07-22T22:30:24.314Z,99679.53
2023-07-22T22:32:52.439Z,99676.81
2023-07-22T22:35:19.003Z,99687.44
2023-07-22T22:37:45.331Z,99675.13
2023-07-22T22:40:11.855Z,99678.69
2023-07-22T22:42:38.240Z,99683.84
2023-07-22T22:45:05.144Z,99681.28
2023-07-22T22:47:31.522Z,99676.81
2023-07-22T22:49:57.956Z,99676.75
2023-07-22T22:52:24.296Z,99679.19
2023-07-22T22:54:50.705Z,99677.38
2023-07-22T22:57:17.041Z,99683.63
2023-07-22T22:59:43.356Z,99681.75
2023-07-22T23:02:09.712Z,99672.94
2023-07-22T23:04:36.084Z,99681.75
2023-07-22T23:07:02.455Z,99672.81
2023-07-22T23:09:28.808Z,99673.66
2023-07-22T23:11:58.736Z,99683.63
2023-07-22T23:14:25.118Z,99679.19
2023-07-22T23:16:51.555Z,99680.28
2023-07-22T23:19:19.081Z,99675.97
2023-07-22T23:21:45.479Z,99671.69
2023-07-22T23:24:11.860Z,99678.19
2023-07-22T23:26:38.203Z,99681.50
2023-07-22T23:29:04.718Z,99674.25
2023-07-22T23:31:31.427Z,99676.94
2023-07-22T23:33:58.048Z,99677.09
2023-07-22T23:36:24.393Z,99675.13
2023-07-22T23:38:50.812Z,99681.28
2023-07-22T23:41:17.148Z,99674.25
2023-07-22T23:43:43.557Z,99673.41
2023-07-22T23:46:09.942Z,99668.72
2023-07-22T23:48:36.326Z,99661.47
2023-07-22T23:51:02.710Z,99666.03
2023-07-22T23:53:29.148Z,99660.75
2023-07-22T23:55:55.511Z,99661.63
2023-07-22T23:58:21.864Z,99650.94
